createdAt,value
2023-04-29T00:02:05.899Z,3.47
2023-04-29T00:04:55.259Z,3.17
2023-04-29T00:07:44.134Z,3.57
2023-04-29T00:10:32.656Z,2.87
2023-04-29T00:13:21.264Z,3.20
2023-04-29T00:16:11.432Z,3.23
2023-04-29T00:19:00.226Z,4.00
2023-04-29T00:21:48.923Z,3.40
2023-04-29T00:24:37.682Z,3.20
2023-04-29T00:27:26.465Z,3.30
2023-04-29T00:30:14.935Z,3.10
2023-04-29T00:33:05.020Z,3.10
2023-04-29T00:35:53.512Z,3.80
2023-04-29T00:38:41.980Z,3.30
2023-04-29T00:41:30.929Z,3.70
2023-04-29T00:44:19.382Z,3.50
2023-04-29T00:47:11.345Z,3.73
2023-04-29T00:50:01.323Z,3.80
2023-04-29T00:52:50.209Z,3.87
2023-04-29T00:55:38.758Z,4.03
2023-04-29T00:58:32.992Z,3.67
2023-04-29T01:01:21.898Z,3.80
2023-04-29T01:04:10.951Z,3.37
2023-04-29T01:07:06.271Z,3.47
2023-04-29T01:09:59.906Z,4.13
2023-04-29T01:12:53.680Z,4.47
2023-04-29T01:15:48.819Z,3.90
2023-04-29T01:18:40.556Z,3.57
2023-04-29T01:21:31.994Z,4.23
2023-04-29T01:24:21.765Z,4.30
2023-04-29T01:27:20.094Z,4.10
2023-04-29T01:30:13.697Z,4.07
2023-04-29T01:33:07.621Z,4.20
2023-04-29T01:36:05.256Z,4.40
2023-04-29T01:38:59.022Z,4.17
2023-04-29T01:41:58.885Z,4.60
2023-04-29T01:44:48.892Z,4.37
2023-04-29T01:47:37.881Z,4.37
2023-04-29T01:50:26.525Z,3.93
2023-04-29T01:53:15.297Z,4.30
2023-04-29T01:56:03.810Z,4.10
2023-04-29T01:58:53.687Z,4.40
2023-04-29T02:01:42.170Z,4.07
2023-04-29T02:04:33.641Z,4.67
2023-04-29T02:07:22.139Z,4.97
2023-04-29T02:10:11.978Z,4.33
2023-04-29T02:13:01.368Z,4.53
2023-04-29T02:15:51.245Z,5.00
2023-04-29T02:18:40.090Z,4.63
2023-04-29T02:21:28.565Z,5.90
2023-04-29T02:24:17.118Z,4.40
2023-04-29T02:27:06.799Z,4.83
2023-04-29T02:29:55.234Z,4.83
2023-04-29T02:32:45.065Z,4.40
2023-04-29T02:35:33.583Z,5.53
2023-04-29T02:38:22.002Z,4.73
2023-04-29T02:41:10.549Z,4.77
2023-04-29T02:43:59.022Z,4.57
2023-04-29T02:46:47.836Z,4.90
2023-04-29T02:49:37.640Z,4.93
2023-04-29T02:52:26.118Z,4.70
2023-04-29T02:55:14.574Z,5.50
2023-04-29T02:58:03.911Z,4.80
2023-04-29T03:00:52.461Z,5.23
2023-04-29T03:03:41.199Z,5.57
2023-04-29T03:06:31.440Z,5.37
2023-04-29T03:09:21.432Z,5.30
2023-04-29T03:12:09.934Z,5.40
2023-04-29T03:14:58.530Z,6.00
2023-04-29T03:17:47.166Z,5.63
2023-04-29T03:20:35.715Z,5.27
2023-04-29T03:23:26.782Z,5.93
2023-04-29T03:26:15.342Z,5.70
2023-04-29T03:29:04.036Z,5.83
2023-04-29T03:31:52.763Z,5.13
2023-04-29T03:34:41.320Z,5.30
2023-04-29T03:37:29.808Z,4.90
2023-04-29T03:40:19.694Z,5.10
2023-04-29T03:43:09.134Z,5.53
2023-04-29T03:45:57.631Z,5.03
2023-04-29T03:48:46.153Z,5.10
2023-04-29T03:51:34.959Z,5.43
2023-04-29T03:54:23.689Z,5.57
2023-04-29T03:57:13.518Z,4.77
2023-04-29T04:00:01.965Z,6.17
2023-04-29T04:02:50.641Z,6.20
2023-04-29T04:05:39.212Z,5.60
2023-04-29T04:08:27.639Z,5.17
2023-04-29T04:11:16.142Z,5.60
2023-04-29T04:14:06.475Z,5.70
2023-04-29T04:16:55.006Z,6.13
2023-04-29T04:19:43.499Z,5.60
2023-04-29T04:22:32.025Z,5.20
2023-04-29T04:25:20.433Z,4.63
2023-04-29T04:28:08.961Z,4.60
2023-04-29T04:30:58.920Z,4.60
2023-04-29T04:33:47.449Z,4.23
2023-04-29T04:36:35.968Z,3.90
2023-04-29T04:39:24.581Z,4.53
2023-04-29T04:42:13.071Z,3.63
2023-04-29T04:45:01.498Z,4.17
2023-04-29T04:47:51.376Z,4.17
2023-04-29T04:50:40.109Z,4.60
2023-04-29T04:53:28.615Z,4.83
2023-04-29T04:56:17.062Z,4.40
2023-04-29T04:59:05.531Z,4.27
2023-04-29T05:01:54.096Z,4.83
2023-04-29T05:04:44.674Z,4.07
2023-04-29T05:07:35.844Z,4.27
2023-04-29T05:10:26.539Z,4.80
2023-04-29T05:13:15.020Z,4.00
2023-04-29T05:16:06.383Z,5.03
2023-04-29T05:18:55.168Z,3.90
2023-04-29T05:21:45.027Z,3.90
2023-04-29T05:24:33.519Z,5.03
2023-04-29T05:27:21.960Z,4.70
2023-04-29T05:30:11.124Z,3.17
2023-04-29T05:32:59.695Z,2.70
2023-04-29T05:35:48.191Z,3.47
2023-04-29T05:38:38.250Z,3.63
2023-04-29T05:41:26.846Z,3.20
2023-04-29T05:44:15.323Z,3.23
2023-04-29T05:47:03.834Z,3.10
2023-04-29T05:49:52.675Z,3.00
2023-04-29T05:52:41.318Z,3.80
2023-04-29T05:55:31.243Z,3.57
2023-04-29T05:58:19.750Z,3.57
2023-04-29T06:01:08.180Z,3.17
2023-04-29T06:03:56.786Z,3.80
2023-04-29T06:06:45.508Z,3.40
2023-04-29T06:09:34.012Z,3.40
2023-04-29T06:12:24.067Z,3.90
2023-04-29T06:15:12.681Z,3.33
2023-04-29T06:18:01.268Z,3.30
2023-04-29T06:20:49.796Z,3.47
2023-04-29T06:23:38.313Z,3.40
2023-04-29T06:26:26.835Z,4.23
2023-04-29T06:29:16.665Z,4.20
2023-04-29T06:32:05.633Z,3.47
2023-04-29T06:34:54.202Z,3.80
2023-04-29T06:37:42.666Z,3.57
2023-04-29T06:40:31.144Z,3.57
2023-04-29T06:43:19.620Z,3.40
2023-04-29T06:46:09.936Z,3.23
2023-04-29T06:48:58.516Z,4.20
2023-04-29T06:51:46.962Z,3.80
2023-04-29T06:54:35.619Z,3.50
2023-04-29T06:57:24.041Z,3.70
2023-04-29T07:00:13.134Z,3.20
2023-04-29T07:03:03.367Z,3.63
2023-04-29T07:05:51.904Z,3.90
2023-04-29T07:08:40.516Z,3.93
2023-04-29T07:11:29.172Z,3.80
2023-04-29T07:14:17.709Z,3.43
2023-04-29T07:17:06.477Z,3.57
2023-04-29T07:19:56.280Z,3.50
2023-04-29T07:22:44.724Z,4.53
2023-04-29T07:25:34.033Z,3.57
2023-04-29T07:28:22.510Z,4.00
2023-04-29T07:31:11.836Z,3.83
2023-04-29T07:34:00.333Z,3.40
2023-04-29T07:36:50.130Z,3.60
2023-04-29T07:39:38.617Z,3.90
2023-04-29T07:42:27.362Z,3.60
2023-04-29T07:45:15.953Z,3.60
2023-04-29T07:48:04.674Z,2.90
2023-04-29T07:50:53.227Z,4.10
2023-04-29T07:53:43.353Z,3.63
2023-04-29T07:56:32.394Z,3.80
2023-04-29T07:59:20.951Z,4.00
2023-04-29T08:02:09.478Z,3.63
2023-04-29T08:04:58.177Z,3.90
2023-04-29T08:07:47.198Z,3.60
2023-04-29T08:10:41.000Z,4.30
2023-04-29T08:13:29.552Z,3.80
2023-04-29T08:16:18.089Z,3.80
2023-04-29T08:19:06.622Z,2.90
2023-04-29T08:21:55.145Z,3.27
2023-04-29T08:24:45.189Z,3.70
2023-04-29T08:27:34.997Z,3.53
2023-04-29T08:30:23.929Z,3.70
2023-04-29T08:33:13.127Z,3.30
2023-04-29T08:36:03.808Z,3.17
2023-04-29T08:38:52.902Z,3.40
2023-04-29T08:41:49.315Z,4.00
2023-04-29T08:44:40.897Z,3.90
2023-04-29T08:47:31.299Z,3.00
2023-04-29T08:50:19.896Z,4.20
2023-04-29T08:53:08.932Z,3.50
2023-04-29T08:55:59.636Z,3.37
2023-04-29T08:58:49.640Z,3.50
2023-04-29T09:01:41.882Z,3.23
2023-04-29T09:04:38.105Z,3.57
2023-04-29T09:07:27.192Z,3.47
2023-04-29T09:10:18.782Z,3.07
2023-04-29T09:13:07.235Z,2.93
2023-04-29T09:15:56.144Z,3.10
2023-04-29T09:18:47.491Z,3.13
2023-04-29T09:21:35.998Z,3.03
2023-04-29T09:24:27.372Z,3.00
2023-04-29T09:27:29.294Z,3.20
2023-04-29T09:30:18.152Z,3.30
2023-04-29T09:33:08.550Z,3.20
2023-04-29T09:36:00.977Z,2.63
2023-04-29T09:38:55.028Z,3.07
2023-04-29T09:41:59.078Z,3.60
2023-04-29T09:44:47.791Z,3.10
2023-04-29T09:47:36.460Z,3.60
2023-04-29T09:50:25.092Z,4.10
2023-04-29T09:53:29.883Z,3.87
2023-04-29T09:56:18.435Z,3.30
2023-04-29T09:59:09.798Z,2.80
2023-04-29T10:01:59.078Z,3.63
2023-04-29T10:04:48.867Z,3.80
2023-04-29T10:07:40.729Z,3.60
2023-04-29T10:10:31.454Z,4.67
2023-04-29T10:13:20.046Z,4.10
2023-04-29T10:16:18.412Z,3.70
2023-04-29T10:19:09.583Z,4.33
2023-04-29T10:21:59.893Z,3.53
2023-04-29T10:24:49.488Z,8.83
2023-04-29T10:27:41.447Z,10.07
2023-04-29T10:30:30.163Z,11.10
2023-04-29T10:33:19.047Z,9.90
2023-04-29T10:36:09.269Z,12.20
2023-04-29T10:39:00.700Z,14.67
2023-04-29T10:41:49.258Z,14.50
2023-04-29T10:45:26.809Z,12.67
2023-04-29T10:48:18.774Z,16.57
2023-04-29T10:51:07.346Z,14.30
2023-04-29T10:54:03.446Z,13.77
2023-04-29T10:56:52.900Z,13.47
2023-04-29T10:59:48.908Z,12.00
2023-04-29T11:02:38.285Z,16.30
2023-04-29T11:05:32.148Z,15.63
2023-04-29T11:08:24.041Z,18.50
2023-04-29T11:11:14.674Z,16.83
2023-04-29T11:14:03.977Z,14.57
2023-04-29T11:16:55.481Z,13.10
2023-04-29T11:19:46.369Z,13.00
2023-04-29T11:22:35.027Z,12.50
2023-04-29T11:25:28.446Z,12.10
2023-04-29T11:28:17.133Z,12.70
2023-04-29T11:31:05.880Z,12.03
2023-04-29T11:33:55.721Z,11.27
2023-04-29T11:36:45.782Z,11.60
2023-04-29T11:39:36.405Z,9.27
2023-04-29T11:42:24.928Z,10.60
2023-04-29T11:45:13.480Z,9.10
2023-04-29T11:48:02.127Z,11.27
2023-04-29T11:50:53.583Z,10.43
2023-04-29T11:53:42.236Z,9.67
2023-04-29T11:56:30.818Z,8.33
2023-04-29T11:59:20.510Z,8.47
2023-04-29T12:02:13.065Z,8.90
2023-04-29T12:05:02.442Z,9.67
2023-04-29T12:07:52.666Z,9.73
2023-04-29T12:10:41.123Z,9.13
2023-04-29T12:13:31.278Z,8.37
2023-04-29T12:16:19.871Z,7.73
2023-04-29T12:19:10.437Z,7.70
2023-04-29T12:21:59.972Z,6.83
2023-04-29T12:24:50.891Z,7.73
2023-04-29T12:27:42.228Z,7.80
2023-04-29T12:30:30.791Z,7.40
2023-04-29T12:33:23.537Z,8.33
2023-04-29T12:36:18.182Z,6.10
2023-04-29T12:39:08.397Z,5.97
2023-04-29T12:41:59.539Z,6.93
2023-04-29T12:44:48.298Z,7.50
2023-04-29T12:47:37.202Z,6.03
2023-04-29T12:50:32.794Z,6.90
2023-04-29T12:53:21.313Z,7.97
2023-04-29T12:56:09.780Z,6.23
2023-04-29T12:59:06.323Z,7.30
2023-04-29T13:01:55.159Z,7.17
2023-04-29T13:04:43.929Z,6.50
2023-04-29T13:07:32.668Z,7.53
2023-04-29T13:10:22.194Z,6.53
2023-04-29T13:13:10.758Z,6.57
2023-04-29T13:16:01.297Z,7.50
2023-04-29T13:19:05.285Z,6.40
2023-04-29T13:21:58.568Z,7.13
2023-04-29T13:24:47.432Z,6.17
2023-04-29T13:27:35.961Z,6.60
2023-04-29T13:30:24.624Z,6.37
2023-04-29T13:33:14.652Z,7.27
2023-04-29T13:36:03.499Z,6.40
2023-04-29T13:38:55.592Z,6.17
2023-04-29T13:41:45.916Z,6.77
2023-04-29T13:44:51.054Z,6.03
2023-04-29T13:47:57.483Z,7.20
2023-04-29T13:51:27.081Z,5.90
2023-04-29T13:54:48.176Z,5.70
2023-04-29T13:57:39.286Z,5.97
2023-04-29T14:03:09.189Z,5.60
2023-04-29T14:05:59.177Z,6.13
2023-04-29T14:08:48.006Z,6.40
2023-04-29T14:11:36.970Z,6.67
2023-04-29T14:14:25.771Z,7.20
2023-04-29T14:17:14.597Z,6.60
2023-04-29T14:20:03.358Z,6.20
2023-04-29T14:22:53.362Z,5.90
2023-04-29T14:25:41.861Z,5.67
2023-04-29T14:28:30.379Z,4.80
2023-04-29T14:31:18.950Z,4.80
2023-04-29T14:34:07.520Z,5.07
2023-04-29T14:36:59.065Z,5.20
2023-04-29T14:39:48.943Z,5.40
2023-04-29T14:42:37.590Z,7.10
2023-04-29T14:45:26.146Z,6.23
2023-04-29T14:48:14.659Z,5.30
2023-04-29T14:51:03.268Z,5.10
2023-04-29T14:53:52.827Z,5.53
2023-04-29T14:56:42.725Z,5.00
2023-04-29T14:59:32.148Z,5.30
2023-04-29T15:02:20.641Z,5.43
2023-04-29T15:05:09.653Z,6.10
2023-04-29T15:08:00.242Z,5.40
2023-04-29T15:10:49.998Z,6.00
2023-04-29T15:13:40.157Z,4.63
2023-04-29T15:16:29.395Z,5.43
2023-04-29T15:19:17.921Z,5.37
2023-04-29T15:22:06.442Z,4.90
2023-04-29T15:24:55.411Z,5.00
2023-04-29T15:27:43.917Z,5.20
2023-04-29T15:30:33.786Z,4.33
2023-04-29T15:33:22.365Z,4.57
2023-04-29T15:36:10.910Z,4.23
2023-04-29T15:38:59.677Z,4.50
2023-04-29T15:41:48.232Z,4.90
2023-04-29T15:44:36.681Z,4.53
2023-04-29T15:47:26.663Z,5.47
2023-04-29T15:50:15.237Z,5.67
2023-04-29T15:53:03.779Z,4.93
2023-04-29T15:55:52.255Z,6.10
2023-04-29T15:58:40.755Z,6.20
2023-04-29T16:01:29.403Z,5.10
2023-04-29T16:04:19.292Z,6.30
2023-04-29T16:07:07.832Z,5.67
2023-04-29T16:09:56.434Z,6.37
2023-04-29T16:12:45.047Z,7.20
2023-04-29T16:15:33.654Z,6.63
2023-04-29T16:18:22.243Z,6.50
2023-04-29T16:21:13.561Z,5.70
2023-04-29T16:24:02.181Z,5.57
2023-04-29T16:26:50.964Z,7.33
2023-04-29T16:29:39.494Z,7.97
2023-04-29T16:32:29.063Z,7.53
2023-04-29T16:35:17.747Z,6.77
2023-04-29T16:38:07.625Z,7.03
2023-04-29T16:40:56.218Z,6.77
2023-04-29T16:43:44.770Z,6.03
2023-04-29T16:46:33.501Z,5.43
2023-04-29T16:49:26.104Z,5.53
2023-04-29T16:52:14.700Z,5.30
2023-04-29T16:55:05.008Z,5.47
2023-04-29T16:57:53.531Z,4.23
2023-04-29T17:00:42.012Z,4.60
2023-04-29T17:03:30.795Z,4.63
2023-04-29T17:06:19.364Z,5.50
2023-04-29T17:09:08.050Z,4.83
2023-04-29T17:11:58.393Z,4.40
2023-04-29T17:14:48.312Z,4.40
2023-04-29T17:17:36.863Z,5.03
2023-04-29T17:20:25.371Z,4.07
2023-04-29T17:23:13.828Z,4.10
2023-04-29T17:26:02.305Z,4.80
2023-04-29T17:28:52.170Z,4.60
2023-04-29T17:31:45.869Z,7.10
2023-04-29T17:34:36.612Z,5.57
2023-04-29T17:37:25.873Z,4.80
2023-04-29T17:40:14.538Z,5.20
2023-04-29T17:43:03.014Z,4.63
2023-04-29T17:45:53.011Z,4.13
2023-04-29T17:48:41.585Z,4.87
2023-04-29T17:51:32.997Z,4.50
2023-04-29T17:54:21.540Z,5.03
2023-04-29T17:57:10.432Z,4.57
2023-04-29T17:59:59.002Z,4.20
2023-04-29T18:02:48.979Z,4.10
2023-04-29T18:05:38.156Z,5.27
2023-04-29T18:08:26.675Z,4.27
2023-04-29T18:11:15.162Z,4.27
2023-04-29T18:14:04.741Z,4.90
2023-04-29T18:16:53.498Z,4.37
2023-04-29T18:19:43.929Z,4.10
2023-04-29T18:22:32.951Z,4.80
2023-04-29T18:25:21.663Z,4.67
2023-04-29T18:28:24.014Z,5.07
2023-04-29T18:31:13.638Z,5.70
2023-04-29T18:34:04.598Z,8.50
2023-04-29T18:36:54.446Z,6.33
2023-04-29T18:39:42.936Z,8.83
2023-04-29T18:42:31.358Z,8.00
2023-04-29T18:45:19.956Z,7.80
2023-04-29T18:48:08.693Z,8.60
2023-04-29T18:50:59.177Z,7.10
2023-04-29T18:53:49.192Z,6.80
2023-04-29T18:56:39.676Z,7.43
2023-04-29T18:59:29.740Z,7.07
2023-04-29T19:02:18.222Z,6.93
2023-04-29T19:05:11.077Z,6.87
2023-04-29T19:07:59.715Z,6.67
2023-04-29T19:10:49.561Z,7.53
2023-04-29T19:13:38.076Z,8.37
2023-04-29T19:16:26.746Z,9.50
2023-04-29T19:19:15.421Z,9.70
2023-04-29T19:22:05.312Z,9.57
2023-04-29T19:24:53.868Z,8.87
2023-04-29T19:27:45.210Z,9.33
2023-04-29T19:30:34.765Z,8.20
2023-04-29T19:33:23.244Z,6.80
2023-04-29T19:36:14.137Z,6.83
2023-04-29T19:39:04.371Z,8.07
2023-04-29T19:41:52.916Z,6.07
2023-04-29T19:44:42.751Z,7.27
2023-04-29T19:47:31.277Z,7.00
2023-04-29T19:50:20.301Z,7.30
2023-04-29T19:53:09.335Z,6.57
2023-04-29T19:55:57.838Z,8.70
2023-04-29T19:58:46.598Z,8.60
2023-04-29T20:01:36.452Z,8.50
2023-04-29T20:04:25.692Z,7.70
2023-04-29T20:07:14.167Z,9.03
2023-04-29T20:10:02.693Z,8.87
2023-04-29T20:12:51.228Z,8.90
2023-04-29T20:15:39.796Z,9.20
2023-04-29T20:18:29.757Z,9.30
2023-04-29T20:21:18.290Z,9.63
2023-04-29T20:24:07.208Z,9.93
2023-04-29T20:26:55.850Z,9.47
2023-04-29T20:29:44.903Z,8.90
2023-04-29T20:32:33.548Z,9.13
2023-04-29T20:35:23.351Z,9.67
2023-04-29T20:38:11.928Z,10.03
2023-04-29T20:41:00.395Z,10.60
2023-04-29T20:43:49.180Z,10.73
2023-04-29T20:46:38.027Z,9.83
2023-04-29T20:49:26.799Z,10.13
2023-04-29T20:52:17.347Z,10.47
2023-04-29T20:55:06.441Z,9.10
2023-04-29T20:57:55.067Z,9.97
2023-04-29T21:00:43.642Z,9.97
2023-04-29T21:03:32.201Z,10.07
2023-04-29T21:06:20.818Z,9.47
2023-04-29T21:09:11.105Z,9.33
2023-04-29T21:12:01.385Z,9.67
2023-04-29T21:14:49.982Z,10.03
2023-04-29T21:17:38.500Z,9.10
2023-04-29T21:20:27.212Z,9.00
2023-04-29T21:23:15.723Z,9.60
2023-04-29T21:26:06.000Z,9.40
2023-04-29T21:28:54.537Z,10.37
2023-04-29T21:31:43.077Z,10.00
2023-04-29T21:34:31.636Z,10.40
2023-04-29T21:37:20.182Z,9.53
2023-04-29T21:40:09.943Z,10.20
2023-04-29T21:42:59.995Z,10.23
2023-04-29T21:45:49.944Z,8.23
2023-04-29T21:48:38.458Z,9.20
2023-04-29T21:51:27.095Z,8.53
2023-04-29T21:54:15.532Z,8.07
2023-04-29T21:57:05.803Z,9.93
2023-04-29T21:59:55.867Z,9.20
2023-04-29T22:02:44.515Z,8.77
2023-04-29T22:05:33.099Z,9.10
2023-04-29T22:08:21.651Z,9.07
2023-04-29T22:11:10.194Z,10.30
2023-04-29T22:13:58.701Z,8.90
2023-04-29T22:16:48.778Z,8.70
2023-04-29T22:19:38.091Z,9.37
2023-04-29T22:22:26.648Z,8.70
2023-04-29T22:25:15.240Z,9.00
2023-04-29T22:28:03.791Z,9.50
2023-04-29T22:30:52.879Z,8.57
2023-04-29T22:33:42.739Z,9.87
2023-04-29T22:36:32.143Z,8.30
2023-04-29T22:39:20.725Z,9.00
2023-04-29T22:42:09.240Z,9.30
2023-04-29T22:44:57.761Z,8.90
2023-04-29T22:47:46.291Z,10.00
2023-04-29T22:50:36.151Z,8.83
2023-04-29T22:53:24.837Z,9.50
2023-04-29T22:56:13.335Z,8.87
2023-04-29T22:59:01.782Z,8.73
2023-04-29T23:01:50.379Z,8.23
2023-04-29T23:04:39.013Z,9.20
2023-04-29T23:07:28.976Z,10.40
2023-04-29T23:10:17.686Z,8.97
2023-04-29T23:13:06.671Z,9.57
2023-04-29T23:15:56.650Z,9.50
2023-04-29T23:18:45.279Z,8.30
2023-04-29T23:21:33.802Z,10.73
2023-04-29T23:24:23.752Z,9.30
2023-04-29T23:27:12.377Z,10.27
2023-04-29T23:30:00.870Z,9.33
2023-04-29T23:32:49.637Z,9.40
2023-04-29T23:35:38.160Z,9.27
2023-04-29T23:38:26.687Z,10.97
2023-04-29T23:41:16.542Z,10.03
2023-04-29T23:44:04.969Z,10.23
2023-04-29T23:46:53.653Z,10.33
2023-04-29T23:49:42.181Z,9.27
2023-04-29T23:52:30.684Z,9.30
2023-04-29T23:55:20.637Z,9.63
2023-04-29T23:58:10.531Z,8.50
